Time;durP1;ratioP1;P1;durP2;ratioP2;P2;SDS_P1;SDS_P2;PMS_P1;PMS_P2;Temp;Humidity;BMP_temperature;BMP_pressure;BME280_temperature;BME280_humidity;BME280_pressure;Samples;Min_cycle;Max_cycle;Signal;HPM_P1;HPM_P2
2023/01/10 00:03:59;;;;;;;2.92;1.60;;;;;;;;;;12722233;23;20036;-86
2023/01/10 00:09:04;;;;;;;3.40;1.80;;;;;;;;;;12720791;23;20022;-87
2023/01/10 00:14:10;;;;;;;2.78;1.40;;;;;;;;;;12721560;23;20077;-86
2023/01/10 00:19:13;;;;;;;3.30;1.63;;;;;;;;;;12721180;23;20025;-86
2023/01/10 00:24:18;;;;;;;2.08;1.10;;;;;;;;;;12721814;23;20254;-87
2023/01/10 00:29:26;;;;;;;2.88;1.20;;;;;;;;;;12721212;23;20025;-87
2023/01/10 00:34:31;;;;;;;0.70;0.60;;;;;;;;;;12721978;23;20029;-88
2023/01/10 00:39:36;;;;;;;1.42;0.73;;;;;;;;;;12720391;23;20022;-87
2023/01/10 00:44:40;;;;;;;0.80;0.60;;;;;;;;;;12721072;23;20033;-87
2023/01/10 00:49:43;;;;;;;0.82;0.70;;;;;;;;;;12719764;23;20700;-87
2023/01/10 00:54:49;;;;;;;0.90;0.70;;;;;;;;;;12704527;23;20471;-88
2023/01/10 00:59:54;;;;;;;3.23;0.77;;;;;;;;;;12657980;23;20022;-87
2023/01/10 01:04:58;;;;;;;1.03;0.80;;;;;;;;;;12658603;23;20026;-87
2023/01/10 01:15:24;;;;;;;2.13;0.60;;;;;;;;;;12648419;23;20036;-87
2023/01/10 01:20:28;;;;;;;1.20;0.70;;;;;;;;;;12659131;23;20681;-86
2023/01/10 01:25:33;;;;;;;0.85;0.70;;;;;;;;;;12657802;23;20028;-88
2023/01/10 01:30:37;;;;;;;1.50;1.00;;;;;;;;;;12658796;23;20042;-87
2023/01/10 01:35:42;;;;;;;5.22;1.25;;;;;;;;;;12655920;23;20022;-86
2023/01/10 01:40:47;;;;;;;3.20;1.13;;;;;;;;;;12658120;23;20044;-87
2023/01/10 01:45:51;;;;;;;3.00;1.00;;;;;;;;;;12658976;23;20042;-85
2023/01/10 01:51:04;;;;;;;2.08;1.08;;;;;;;;;;12632276;23;20753;-86
2023/01/10 01:56:13;;;;;;;4.53;1.23;;;;;;;;;;12657424;23;20050;-87
2023/01/10 02:01:17;;;;;;;4.53;1.42;;;;;;;;;;12658833;23;20352;-86
2023/01/10 02:06:23;;;;;;;3.40;1.23;;;;;;;;;;12633648;23;20026;-84
2023/01/10 02:11:30;;;;;;;4.45;1.23;;;;;;;;;;12656455;23;20017;-85
2023/01/10 02:16:33;;;;;;;3.80;1.45;;;;;;;;;;12657034;23;20209;-84
2023/01/10 02:22:09;;;;;;;4.55;1.15;;;;;;;;;;12653086;23;20045;-85
2023/01/10 02:27:26;;;;;;;5.88;1.70;;;;;;;;;;12646682;23;20026;-84
2023/01/10 02:32:37;;;;;;;2.90;1.15;;;;;;;;;;12660971;23;20026;-84
2023/01/10 02:38:00;;;;;;;2.97;1.20;;;;;;;;;;12662911;23;20026;-86
2023/01/10 02:43:09;;;;;;;6.50;1.88;;;;;;;;;;12655815;23;20650;-87
2023/01/10 02:48:15;;;;;;;3.97;1.73;;;;;;;;;;12664422;23;20625;-87
2023/01/10 02:53:24;;;;;;;3.88;1.33;;;;;;;;;;12664828;23;20022;-85
2023/01/10 02:58:39;;;;;;;6.80;1.77;;;;;;;;;;12644863;23;20469;-85
2023/01/10 03:03:51;;;;;;;6.15;1.52;;;;;;;;;;12666626;23;20018;-87
2023/01/10 03:09:00;;;;;;;6.85;1.63;;;;;;;;;;12658694;23;20427;-87
2023/01/10 03:14:05;;;;;;;2.40;1.33;;;;;;;;;;12662669;23;20072;-89
2023/01/10 03:19:12;;;;;;;6.07;2.00;;;;;;;;;;12673072;23;20025;-86
2023/01/10 03:24:20;;;;;;;6.28;2.15;;;;;;;;;;12670256;23;20033;-89
2023/01/10 03:29:28;;;;;;;7.03;2.25;;;;;;;;;;12665305;23;20069;-87
2023/01/10 03:34:36;;;;;;;8.25;2.10;;;;;;;;;;12659173;23;20022;-87
2023/01/10 03:39:51;;;;;;;7.05;2.20;;;;;;;;;;12662569;23;20021;-87
2023/01/10 03:45:01;;;;;;;5.65;2.25;;;;;;;;;;12660090;23;20109;-85
2023/01/10 03:50:10;;;;;;;7.03;2.30;;;;;;;;;;12656029;23;20070;-82
2023/01/10 03:55:17;;;;;;;6.53;2.08;;;;;;;;;;12655474;23;20101;-84
2023/01/10 04:00:23;;;;;;;6.43;2.35;;;;;;;;;;12654637;23;20040;-82
2023/01/10 04:05:27;;;;;;;7.68;2.38;;;;;;;;;;12635722;23;20583;-84
2023/01/10 04:10:31;;;;;;;5.18;2.03;;;;;;;;;;12636868;23;20018;-82
2023/01/10 04:15:34;;;;;;;6.13;1.83;;;;;;;;;;12626059;23;20032;-83
2023/01/10 04:20:39;;;;;;;5.32;1.75;;;;;;;;;;12653131;23;20097;-82
2023/01/10 04:25:46;;;;;;;6.80;2.42;;;;;;;;;;12676870;23;20467;-83
2023/01/10 04:30:49;;;;;;;7.93;2.67;;;;;;;;;;12688756;23;20034;-84
2023/01/10 04:35:55;;;;;;;8.07;2.10;;;;;;;;;;12687842;23;20108;-85
2023/01/10 04:40:58;;;;;;;5.68;2.40;;;;;;;;;;12691728;23;20643;-83
2023/01/10 04:46:02;;;;;;;8.95;3.00;;;;;;;;;;12692342;23;20052;-83
2023/01/10 04:51:07;;;;;;;6.03;2.33;;;;;;;;;;12689666;23;20021;-84
2023/01/10 04:56:17;;;;;;;9.55;2.35;;;;;;;;;;12682279;23;20026;-82
2023/01/10 05:01:21;;;;;;;9.48;2.08;;;;;;;;;;12655008;23;20333;-82
2023/01/10 05:06:26;;;;;;;3.95;2.00;;;;;;;;;;12652768;23;20033;-83
2023/01/10 05:11:30;;;;;;;6.45;2.05;;;;;;;;;;12632572;23;20022;-82
2023/01/10 05:16:34;;;;;;;9.23;2.15;;;;;;;;;;12652657;23;20475;-82
2023/01/10 05:21:38;;;;;;;7.30;1.85;;;;;;;;;;12664105;23;20025;-82
2023/01/10 05:26:42;;;;;;;4.57;1.80;;;;;;;;;;12637500;23;20411;-81
2023/01/10 05:31:45;;;;;;;6.82;1.70;;;;;;;;;;12651707;23;20029;-81
2023/01/10 05:36:50;;;;;;;7.03;2.28;;;;;;;;;;12628160;23;20029;-81
2023/01/10 05:41:53;;;;;;;5.00;1.63;;;;;;;;;;12650010;23;20396;-85
2023/01/10 05:46:57;;;;;;;9.93;2.25;;;;;;;;;;12661786;23;20711;-85
2023/01/10 05:52:01;;;;;;;5.45;1.88;;;;;;;;;;12653019;23;20029;-82
2023/01/10 05:57:05;;;;;;;7.88;2.22;;;;;;;;;;12654939;23;20018;-83
2023/01/10 06:02:08;;;;;;;6.35;1.75;;;;;;;;;;12653253;23;20029;-85
2023/01/10 06:07:13;;;;;;;12.07;2.50;;;;;;;;;;12627905;23;20357;-82
2023/01/10 06:12:17;;;;;;;6.80;1.83;;;;;;;;;;12626777;23;20022;-83
2023/01/10 06:17:21;;;;;;;6.85;2.15;;;;;;;;;;12624819;23;20056;-84
2023/01/10 06:22:26;;;;;;;3.78;1.20;;;;;;;;;;12650339;23;20036;-83
2023/01/10 06:27:30;;;;;;;3.97;1.60;;;;;;;;;;12656543;23;20408;-83
2023/01/10 06:32:33;;;;;;;2.63;1.00;;;;;;;;;;12648007;23;20193;-82
2023/01/10 06:37:38;;;;;;;2.17;1.10;;;;;;;;;;12653270;23;20025;-82
2023/01/10 06:42:41;;;;;;;1.65;0.85;;;;;;;;;;12653147;23;20032;-82
2023/01/10 06:47:45;;;;;;;2.03;0.95;;;;;;;;;;12652198;23;20028;-82
2023/01/10 06:52:56;;;;;;;5.85;2.00;;;;;;;;;;12651682;23;20034;-82
2023/01/10 06:58:02;;;;;;;9.32;2.33;;;;;;;;;;12652780;23;20032;-83
2023/01/10 07:03:06;;;;;;;5.88;1.70;;;;;;;;;;12653867;23;20037;-83
2023/01/10 07:08:11;;;;;;;5.07;1.42;;;;;;;;;;12657057;23;20242;-82
2023/01/10 07:13:14;;;;;;;7.40;1.60;;;;;;;;;;12654912;23;20048;-82
2023/01/10 07:18:18;;;;;;;7.72;1.90;;;;;;;;;;12661009;23;20026;-85
2023/01/10 07:23:23;;;;;;;4.93;1.50;;;;;;;;;;12667760;23;20028;-86
2023/01/10 07:28:26;;;;;;;7.93;1.73;;;;;;;;;;12629687;23;20030;-84
2023/01/10 07:33:30;;;;;;;5.80;1.10;;;;;;;;;;12662395;23;20028;-86
2023/01/10 07:38:36;;;;;;;6.03;1.77;;;;;;;;;;12637993;23;20022;-88
2023/01/10 07:43:40;;;;;;;;;;;;;;;;;;12659099;23;20054;-86
2023/01/10 07:48:47;;;;;;;8.23;1.88;;;;;;;;;;12649210;23;19979;-87
2023/01/10 07:53:52;;;;;;;3.70;1.50;;;;;;;;;;12652292;23;20093;-83
2023/01/10 07:58:56;;;;;;;10.02;2.70;;;;;;;;;;12652434;23;20109;-83
2023/01/10 08:03:59;;;;;;;15.40;3.25;;;;;;;;;;12650103;23;20033;-83
2023/01/10 08:09:05;;;;;;;10.90;2.10;;;;;;;;;;12637558;23;20467;-82
2023/01/10 08:14:09;;;;;;;13.10;2.30;;;;;;;;;;12653335;23;20041;-83
2023/01/10 08:19:16;;;;;;;10.35;2.70;;;;;;;;;;12652312;23;20254;-86
2023/01/10 08:24:23;;;;;;;12.85;2.85;;;;;;;;;;12633660;23;20044;-88
2023/01/10 08:29:27;;;;;;;7.03;1.92;;;;;;;;;;12652658;23;20022;-84
2023/01/10 08:34:30;;;;;;;11.05;2.13;;;;;;;;;;12651147;23;20081;-83
2023/01/10 08:39:38;;;;;;;7.55;1.92;;;;;;;;;;12651304;23;20057;-84
2023/01/10 08:44:56;;;;;;;8.65;1.90;;;;;;;;;;12658501;23;20102;-86
2023/01/10 08:50:02;;;;;;;13.23;2.70;;;;;;;;;;12659595;23;20021;-86
2023/01/10 08:55:10;;;;;;;14.25;2.83;;;;;;;;;;12653356;23;20208;-84
2023/01/10 09:00:15;;;;;;;6.47;2.00;;;;;;;;;;12651948;23;20057;-84
2023/01/10 09:05:18;;;;;;;6.15;1.85;;;;;;;;;;12650567;23;20459;-84
2023/01/10 09:10:31;;;;;;;8.93;2.28;;;;;;;;;;12651666;23;20034;-84
2023/01/10 09:15:37;;;;;;;8.60;2.53;;;;;;;;;;12652320;23;20026;-84
2023/01/10 09:20:42;;;;;;;11.35;2.42;;;;;;;;;;12630668;23;20036;-84
2023/01/10 09:25:48;;;;;;;8.48;2.05;;;;;;;;;;12629117;23;20070;-84
2023/01/10 09:30:52;;;;;;;8.65;2.40;;;;;;;;;;12656925;23;20418;-88
2023/01/10 09:35:58;;;;;;;9.63;2.45;;;;;;;;;;12632280;23;20376;-89
2023/01/10 09:41:47;;;;;;;5.93;1.50;;;;;;;;;;12653858;23;20021;-84
2023/01/10 09:46:59;;;;;;;9.13;2.00;;;;;;;;;;12648232;23;20097;-84
2023/01/10 09:52:15;;;;;;;7.55;2.03;;;;;;;;;;12652383;23;20619;-85
2023/01/10 09:57:22;;;;;;;2.83;1.25;;;;;;;;;;12653922;23;20026;-84
2023/01/10 10:02:27;;;;;;;;;;;;;;;;;;12658261;23;20130;-84
2023/01/10 10:07:31;;;;;;;15.10;2.63;;;;;;;;;;12642314;23;19945;-87
2023/01/10 10:12:48;;;;;;;9.88;2.92;;;;;;;;;;12637321;23;20056;-86
2023/01/10 10:18:02;;;;;;;8.02;2.22;;;;;;;;;;12653528;23;20092;-86
2023/01/10 10:23:20;;;;;;;9.93;2.50;;;;;;;;;;12649332;23;20124;-84
2023/01/10 10:28:37;;;;;;;8.60;2.50;;;;;;;;;;12668140;22;20386;-84
2023/01/10 10:34:00;;;;;;;11.48;3.08;;;;;;;;;;12816228;23;20021;-83
2023/01/10 10:39:05;;;;;;;13.13;2.42;;;;;;;;;;12853067;23;20028;-85
2023/01/10 10:44:25;;;;;;;7.70;1.90;;;;;;;;;;12876607;23;20021;-86
2023/01/10 10:49:38;;;;;;;5.65;1.80;;;;;;;;;;12851846;23;20024;-88
2023/01/10 10:54:41;;;;;;;7.22;2.60;;;;;;;;;;12858279;23;20075;-85
2023/01/10 10:59:48;;;;;;;7.72;1.83;;;;;;;;;;12851529;23;20020;-86
2023/01/10 11:04:55;;;;;;;9.80;2.53;;;;;;;;;;12852670;23;20033;-89
2023/01/10 11:10:12;;;;;;;13.18;2.78;;;;;;;;;;12864922;23;20020;-87
2023/01/10 11:15:40;;;;;;;9.75;2.53;;;;;;;;;;12856796;23;20034;-87
2023/01/10 11:20:51;;;;;;;10.48;2.47;;;;;;;;;;12841083;23;20028;-85
2023/01/10 11:25:56;;;;;;;11.20;2.67;;;;;;;;;;12866701;23;20044;-85
2023/01/10 11:31:03;;;;;;;8.55;2.42;;;;;;;;;;12865485;23;20048;-84
2023/01/10 11:36:11;;;;;;;11.65;2.20;;;;;;;;;;12840978;23;20095;-85
2023/01/10 11:41:30;;;;;;;5.50;2.20;;;;;;;;;;12841466;23;20092;-85
2023/01/10 11:46:35;;;;;;;14.55;2.88;;;;;;;;;;12865604;23;20028;-85
2023/01/10 11:51:44;;;;;;;17.90;3.33;;;;;;;;;;12866453;23;20044;-84
2023/01/10 11:56:56;;;;;;;17.17;3.67;;;;;;;;;;12865140;23;20044;-84
2023/01/10 12:02:04;;;;;;;9.48;2.67;;;;;;;;;;12864775;23;20079;-83
2023/01/10 12:07:10;;;;;;;7.65;2.30;;;;;;;;;;12838952;23;20024;-83
2023/01/10 12:12:20;;;;;;;8.30;2.38;;;;;;;;;;12857501;23;20042;-85
2023/01/10 12:17:27;;;;;;;10.93;2.72;;;;;;;;;;12838647;23;20047;-85
2023/01/10 12:22:35;;;;;;;12.30;2.60;;;;;;;;;;12840157;23;20040;-84
2023/01/10 12:27:41;;;;;;;4.72;1.20;;;;;;;;;;12838054;23;20087;-84
2023/01/10 12:32:49;;;;;;;6.10;1.63;;;;;;;;;;12839704;23;20024;-84
2023/01/10 12:37:59;;;;;;;6.15;1.52;;;;;;;;;;12840211;23;20091;-83
2023/01/10 12:48:46;;;;;;;4.60;1.35;;;;;;;;;;12840667;23;20461;-85
2023/01/10 12:53:52;;;;;;;;;;;;;;;;;;12841753;23;20679;-85
2023/01/10 12:59:00;;;;;;;5.75;1.60;;;;;;;;;;12864734;23;19916;-85
2023/01/10 13:04:09;;;;;;;9.63;2.10;;;;;;;;;;12841189;23;20083;-83
2023/01/10 13:09:17;;;;;;;13.05;3.53;;;;;;;;;;12840392;23;20409;-83
2023/01/10 13:14:25;;;;;;;4.60;1.40;;;;;;;;;;12838993;23;20028;-84
2023/01/10 13:19:29;;;;;;;6.03;1.73;;;;;;;;;;12864295;23;20059;-84
2023/01/10 13:24:33;;;;;;;7.53;1.65;;;;;;;;;;12863333;23;20024;-84
2023/01/10 13:29:41;;;;;;;10.60;2.50;;;;;;;;;;12847569;23;20028;-84
2023/01/10 13:34:46;;;;;;;9.95;1.98;;;;;;;;;;12864304;23;20052;-84
2023/01/10 13:39:54;;;;;;;6.53;2.05;;;;;;;;;;12838256;23;20044;-84
2023/01/10 13:45:32;;;;;;;6.93;1.65;;;;;;;;;;12839185;23;20040;-84
2023/01/10 13:51:20;;;;;;;7.63;1.45;;;;;;;;;;12683840;23;20029;-85
2023/01/10 13:56:39;;;;;;;5.57;1.20;;;;;;;;;;12823136;23;20120;-83
2023/01/10 14:07:13;;;;;;;8.85;2.13;;;;;;;;;;12838413;23;20044;-84
2023/01/10 14:12:21;;;;;;;5.63;2.22;;;;;;;;;;12837547;23;20016;-84
2023/01/10 14:17:27;;;;;;;5.78;1.40;;;;;;;;;;12850727;23;20035;-86
2023/01/10 14:22:34;;;;;;;5.15;1.60;;;;;;;;;;12866101;23;20036;-84
2023/01/10 14:27:44;;;;;;;5.70;1.35;;;;;;;;;;12897703;23;20020;-85
2023/01/10 14:32:51;;;;;;;3.95;1.02;;;;;;;;;;12857814;23;20029;-84
2023/01/10 14:37:58;;;;;;;5.22;1.23;;;;;;;;;;12849277;23;20032;-87
2023/01/10 14:43:09;;;;;;;6.07;1.95;;;;;;;;;;12854000;23;20028;-91
2023/01/10 14:48:26;;;;;;;5.13;1.80;;;;;;;;;;12853524;23;20029;-86
2023/01/10 14:53:31;;;;;;;4.43;1.40;;;;;;;;;;12854118;23;20020;-87
2023/01/10 14:58:38;;;;;;;4.67;1.27;;;;;;;;;;12876306;23;20028;-89
2023/01/10 15:03:45;;;;;;;;;;;;;;;;;;12842261;23;20422;-85
2023/01/10 15:08:58;;;;;;;4.32;1.30;;;;;;;;;;12842660;23;19994;-85
2023/01/10 15:14:06;;;;;;;4.88;1.45;;;;;;;;;;12841511;23;20200;-86
2023/01/10 15:19:15;;;;;;;5.47;1.58;;;;;;;;;;12840864;23;20477;-85
2023/01/10 15:24:31;;;;;;;5.90;1.45;;;;;;;;;;12842742;23;20059;-85
2023/01/10 15:29:43;;;;;;;6.32;1.77;;;;;;;;;;12880410;23;20028;-86
2023/01/10 15:34:49;;;;;;;6.47;2.00;;;;;;;;;;12869660;23;20047;-86
2023/01/10 15:39:55;;;;;;;4.45;1.60;;;;;;;;;;12850506;23;20021;-86
2023/01/10 15:45:18;;;;;;;3.75;1.30;;;;;;;;;;12841663;23;20021;-85
2023/01/10 15:50:25;;;;;;;6.50;2.47;;;;;;;;;;12842941;23;20025;-84
2023/01/10 15:55:44;;;;;;;7.25;1.65;;;;;;;;;;12841233;23;20397;-84
2023/01/10 16:00:49;;;;;;;3.78;1.55;;;;;;;;;;12843383;23;20024;-83
2023/01/10 16:05:55;;;;;;;5.87;1.47;;;;;;;;;;12842367;23;20017;-86
2023/01/10 16:11:01;;;;;;;6.40;2.03;;;;;;;;;;12843733;23;20020;-86
2023/01/10 16:16:14;;;;;;;4.70;2.20;;;;;;;;;;12867065;23;20021;-86
2023/01/10 16:21:20;;;;;;;7.00;2.05;;;;;;;;;;12845216;23;20528;-85
2023/01/10 16:26:27;;;;;;;8.65;1.90;;;;;;;;;;12843183;23;20398;-87
2023/01/10 16:31:32;;;;;;;4.28;1.48;;;;;;;;;;12840142;23;20719;-86
2023/01/10 16:36:36;;;;;;;6.97;1.75;;;;;;;;;;12866123;23;20020;-85
2023/01/10 16:47:04;;;;;;;5.53;1.20;;;;;;;;;;12842054;23;20024;-87
2023/01/10 16:52:13;;;;;;;9.18;1.98;;;;;;;;;;12843839;23;20030;-86
2023/01/10 16:57:17;;;;;;;5.28;1.70;;;;;;;;;;12843277;23;20495;-85
2023/01/10 17:02:22;;;;;;;4.60;1.75;;;;;;;;;;12841081;23;20048;-87
2023/01/10 17:07:26;;;;;;;5.50;1.48;;;;;;;;;;12841004;23;20048;-86
2023/01/10 17:12:33;;;;;;;3.40;1.40;;;;;;;;;;12866553;23;20108;-87
2023/01/10 17:17:36;;;;;;;5.40;1.73;;;;;;;;;;12852755;23;20095;-87
2023/01/10 17:22:40;;;;;;;6.38;1.83;;;;;;;;;;12850940;23;20036;-89
2023/01/10 17:27:45;;;;;;;6.75;2.08;;;;;;;;;;12881428;23;20071;-87
2023/01/10 17:32:49;;;;;;;5.70;1.77;;;;;;;;;;12876027;23;20028;-86
2023/01/10 17:37:52;;;;;;;6.15;2.05;;;;;;;;;;12842555;23;20035;-86
2023/01/10 17:42:57;;;;;;;6.57;2.05;;;;;;;;;;12868281;23;20048;-85
2023/01/10 17:48:01;;;;;;;2.97;1.00;;;;;;;;;;12841901;23;20028;-86
2023/01/10 17:53:04;;;;;;;4.18;1.30;;;;;;;;;;12844224;23;20028;-86
2023/01/10 17:58:09;;;;;;;7.05;1.80;;;;;;;;;;12844141;23;20036;-84
2023/01/10 18:03:13;;;;;;;3.30;1.23;;;;;;;;;;12875377;23;20025;-86
2023/01/10 18:08:17;;;;;;;3.90;1.10;;;;;;;;;;12842928;23;20362;-84
2023/01/10 18:13:21;;;;;;;4.05;1.30;;;;;;;;;;12862372;23;20107;-84
2023/01/10 18:18:26;;;;;;;4.63;0.90;;;;;;;;;;12845624;23;20077;-86
2023/01/10 18:23:30;;;;;;;3.00;0.90;;;;;;;;;;12861146;23;20108;-86
2023/01/10 18:28:38;;;;;;;5.35;1.20;;;;;;;;;;12885277;23;20358;-88
2023/01/10 18:33:44;;;;;;;4.28;1.10;;;;;;;;;;12861849;23;20339;-87
2023/01/10 18:38:49;;;;;;;3.53;1.13;;;;;;;;;;12855591;23;20099;-86
2023/01/10 18:43:55;;;;;;;3.45;1.20;;;;;;;;;;12847087;23;20339;-85
2023/01/10 18:48:58;;;;;;;3.47;1.17;;;;;;;;;;12869220;23;20067;-84
2023/01/10 18:54:02;;;;;;;3.35;1.08;;;;;;;;;;12841051;23;20059;-83
2023/01/10 18:59:07;;;;;;;4.50;1.20;;;;;;;;;;12843448;23;20024;-83
2023/01/10 19:04:11;;;;;;;2.80;1.08;;;;;;;;;;12844345;23;20025;-83
2023/01/10 19:09:14;;;;;;;4.22;1.33;;;;;;;;;;12847558;23;20021;-85
2023/01/10 19:14:19;;;;;;;5.22;2.25;;;;;;;;;;12849861;23;20339;-84
2023/01/10 19:19:23;;;;;;;4.55;1.80;;;;;;;;;;12870047;23;20032;-84
2023/01/10 19:24:30;;;;;;;4.00;1.70;;;;;;;;;;12849733;23;20032;-85
2023/01/10 19:29:36;;;;;;;5.18;1.58;;;;;;;;;;12822301;23;20046;-87
2023/01/10 19:34:39;;;;;;;4.27;1.10;;;;;;;;;;12846411;23;20103;-85
2023/01/10 19:45:30;;;;;;;;;;;;;;;;;;12958849;22;20367;-88
2023/01/10 19:50:33;;;;;;;1.75;0.88;;;;;;;;;;12969318;22;19965;-84
2023/01/10 19:55:37;;;;;;;4.45;1.35;;;;;;;;;;12970199;22;20027;-85
2023/01/10 20:00:42;;;;;;;5.28;1.20;;;;;;;;;;12968564;22;20083;-85
2023/01/10 20:11:03;;;;;;;3.80;1.33;;;;;;;;;;10566825;27;20129;-87
2023/01/10 20:16:07;;;;;;;3.47;1.00;;;;;;;;;;10515078;27;447635;-90
2023/01/10 20:21:12;;;;;;;4.72;1.23;;;;;;;;;;10503933;28;20479;-87
2023/01/10 20:26:19;;;;;;;4.20;1.02;;;;;;;;;;10478950;28;20063;-85
2023/01/10 20:31:24;;;;;;;2.65;1.08;;;;;;;;;;10469270;28;20067;-85
2023/01/10 20:36:28;;;;;;;5.13;1.42;;;;;;;;;;10468832;28;20085;-84
2023/01/10 20:41:33;;;;;;;1.48;0.68;;;;;;;;;;10475936;28;20127;-86
2023/01/10 20:46:37;;;;;;;4.25;1.30;;;;;;;;;;10508514;28;20127;-85
2023/01/10 20:51:40;;;;;;;2.78;1.05;;;;;;;;;;10521721;28;20036;-85
2023/01/10 20:56:45;;;;;;;3.03;1.10;;;;;;;;;;10508979;28;20091;-85
2023/01/10 21:01:49;;;;;;;3.05;1.10;;;;;;;;;;10492932;28;20041;-84
2023/01/10 21:06:55;;;;;;;1.33;0.80;;;;;;;;;;10494898;28;20415;-84
2023/01/10 21:12:05;;;;;;;2.92;0.95;;;;;;;;;;10494949;28;20052;-86
2023/01/10 21:17:24;;;;;;;1.40;0.80;;;;;;;;;;10492161;28;20458;-86
2023/01/10 21:22:28;;;;;;;1.63;0.60;;;;;;;;;;10465036;28;20044;-86
2023/01/10 21:27:32;;;;;;;1.83;0.75;;;;;;;;;;10431024;28;20136;-86
2023/01/10 21:32:42;;;;;;;1.25;0.68;;;;;;;;;;10416248;28;20072;-85
2023/01/10 21:37:50;;;;;;;1.15;0.52;;;;;;;;;;10417478;28;20454;-84
2023/01/10 21:42:55;;;;;;;2.15;0.77;;;;;;;;;;10417638;28;20068;-85
2023/01/10 21:47:59;;;;;;;1.17;0.52;;;;;;;;;;10419678;28;20503;-85
2023/01/10 21:53:02;;;;;;;0.60;0.47;;;;;;;;;;10417925;28;20045;-86
2023/01/10 21:58:07;;;;;;;0.57;0.50;;;;;;;;;;10420224;28;20049;-86
2023/01/10 22:03:10;;;;;;;1.10;0.73;;;;;;;;;;10420502;28;20067;-85
2023/01/10 22:08:14;;;;;;;0.75;0.60;;;;;;;;;;10461541;28;20045;-85
2023/01/10 22:13:19;;;;;;;2.30;0.65;;;;;;;;;;10455513;28;20075;-85
2023/01/10 22:18:22;;;;;;;1.40;0.50;;;;;;;;;;10461039;28;20036;-85
2023/01/10 22:23:29;;;;;;;0.73;0.50;;;;;;;;;;10456965;28;20089;-86
2023/01/10 22:28:34;;;;;;;1.25;0.70;;;;;;;;;;10460345;28;20043;-85
2023/01/10 22:33:38;;;;;;;0.80;0.60;;;;;;;;;;10456593;28;20041;-86
2023/01/10 22:38:45;;;;;;;0.77;0.70;;;;;;;;;;10460220;28;20716;-85
2023/01/10 22:43:52;;;;;;;0.60;0.52;;;;;;;;;;10456221;28;20520;-85
2023/01/10 22:48:56;;;;;;;0.55;0.40;;;;;;;;;;10456100;28;20478;-85
2023/01/10 22:54:00;;;;;;;1.65;0.70;;;;;;;;;;10461764;28;20372;-85
2023/01/10 22:59:04;;;;;;;0.65;0.40;;;;;;;;;;10454753;28;20048;-85
2023/01/10 23:04:08;;;;;;;0.50;0.50;;;;;;;;;;10459753;28;20057;-85
2023/01/10 23:09:11;;;;;;;3.35;0.70;;;;;;;;;;10459822;28;20492;-85
2023/01/10 23:14:16;;;;;;;0.47;0.43;;;;;;;;;;10460972;28;20102;-84
2023/01/10 23:19:20;;;;;;;0.57;0.45;;;;;;;;;;10453978;28;20041;-85
2023/01/10 23:24:23;;;;;;;0.63;0.40;;;;;;;;;;10455255;28;20051;-85
2023/01/10 23:29:28;;;;;;;0.40;0.40;;;;;;;;;;10459489;28;20049;-85
2023/01/10 23:34:31;;;;;;;0.73;0.63;;;;;;;;;;10459327;28;20060;-85
2023/01/10 23:39:35;;;;;;;0.43;0.40;;;;;;;;;;10459528;28;20098;-85
2023/01/10 23:44:40;;;;;;;0.52;0.47;;;;;;;;;;10459241;28;20522;-85
2023/01/10 23:49:44;;;;;;;0.40;0.40;;;;;;;;;;10458642;28;20067;-85
2023/01/10 23:54:47;;;;;;;1.75;0.50;;;;;;;;;;10461419;28;20587;-86
2023/01/10 23:59:52;;;;;;;0.57;0.50;;;;;;;;;;10459226;28;20048;-86
